createdAt,value
2023-05-19T00:01:53.246Z,10.18
2023-05-19T00:04:21.432Z,8.18
2023-05-19T00:06:51.764Z,10.15
2023-05-19T00:09:19.132Z,7.90
2023-05-19T00:11:46.668Z,7.70
2023-05-19T00:14:14.205Z,9.93
2023-05-19T00:16:42.369Z,7.43
2023-05-19T00:19:12.487Z,8.63
2023-05-19T00:21:40.397Z,5.60
2023-05-19T00:24:07.741Z,15.50
2023-05-19T00:26:35.196Z,10.35
2023-05-19T00:29:02.438Z,14.63
2023-05-19T00:31:30.075Z,13.57
2023-05-19T00:33:57.262Z,12.25
2023-05-19T00:36:25.414Z,9.52
2023-05-19T00:38:52.368Z,8.90
2023-05-19T00:41:20.083Z,8.98
2023-05-19T00:43:47.017Z,11.30
2023-05-19T00:46:14.324Z,10.10
2023-05-19T00:48:44.750Z,9.88
2023-05-19T00:51:14.893Z,8.98
2023-05-19T00:53:43.956Z,11.82
2023-05-19T00:56:11.326Z,6.72
2023-05-19T00:58:39.317Z,8.73
2023-05-19T01:01:07.928Z,11.77
2023-05-19T01:03:36.271Z,11.05
2023-05-19T01:06:07.950Z,9.55
2023-05-19T01:08:37.349Z,7.90
2023-05-19T01:11:05.350Z,7.57
2023-05-19T01:13:33.168Z,7.70
2023-05-19T01:16:00.172Z,8.02
2023-05-19T01:19:01.815Z,7.45
2023-05-19T01:21:54.659Z,7.85
2023-05-19T01:24:59.067Z,7.60
2023-05-19T01:27:38.117Z,13.27
2023-05-19T01:30:16.651Z,8.15
2023-05-19T01:32:45.637Z,7.22
2023-05-19T01:35:15.585Z,8.80
2023-05-19T01:37:45.421Z,6.65
2023-05-19T01:40:12.910Z,7.35
2023-05-19T01:42:40.943Z,6.38
2023-05-19T01:45:11.721Z,10.27
2023-05-19T01:47:42.235Z,8.15
2023-05-19T01:50:09.841Z,7.38
2023-05-19T01:52:37.263Z,11.10
2023-05-19T01:55:04.767Z,10.25
2023-05-19T01:57:37.474Z,7.65
2023-05-19T02:00:26.995Z,11.23
2023-05-19T02:03:11.849Z,10.02
2023-05-19T02:05:49.772Z,8.27
2023-05-19T02:08:17.123Z,5.47
2023-05-19T02:10:50.402Z,6.10
2023-05-19T02:15:49.803Z,7.50
2023-05-19T02:18:19.365Z,6.32
2023-05-19T02:20:46.681Z,8.75
2023-05-19T02:23:13.993Z,7.78
2023-05-19T02:25:41.279Z,7.45
2023-05-19T02:28:08.620Z,8.60
2023-05-19T02:30:35.938Z,7.28
2023-05-19T02:33:03.015Z,8.18
2023-05-19T02:35:30.320Z,6.55
2023-05-19T02:37:57.679Z,7.32
2023-05-19T02:40:24.594Z,9.00
2023-05-19T02:42:52.062Z,8.70
2023-05-19T02:45:19.337Z,8.23
2023-05-19T02:47:46.690Z,7.38
2023-05-19T02:50:14.033Z,9.55
2023-05-19T02:52:41.298Z,7.88
2023-05-19T02:55:08.612Z,9.13
2023-05-19T02:57:35.929Z,6.40
2023-05-19T03:00:03.658Z,6.68
2023-05-19T03:02:33.448Z,9.57
2023-05-19T03:05:02.290Z,9.00
2023-05-19T03:07:29.616Z,6.90
2023-05-19T03:09:56.850Z,6.80
2023-05-19T03:12:23.844Z,10.65
2023-05-19T03:14:51.129Z,7.13
2023-05-19T03:17:18.429Z,12.35
2023-05-19T03:19:45.725Z,9.02
2023-05-19T03:22:12.624Z,11.10
2023-05-19T03:24:39.861Z,10.27
2023-05-19T03:27:06.829Z,6.63
2023-05-19T03:29:34.145Z,9.60
2023-05-19T03:32:01.834Z,8.73
2023-05-19T03:34:29.247Z,14.90
2023-05-19T03:36:56.588Z,10.88
2023-05-19T03:39:23.491Z,16.92
2023-05-19T03:41:50.677Z,9.68
2023-05-19T03:44:17.969Z,9.35
2023-05-19T03:46:44.893Z,10.73
2023-05-19T03:49:12.139Z,9.63
2023-05-19T03:51:39.438Z,15.65
2023-05-19T03:54:06.888Z,17.13
2023-05-19T03:56:34.266Z,12.40
2023-05-19T03:59:01.138Z,10.60
2023-05-19T04:01:28.455Z,10.43
2023-05-19T04:03:55.797Z,14.43
2023-05-19T04:06:23.490Z,9.45
2023-05-19T04:08:50.867Z,11.70
2023-05-19T04:11:20.636Z,15.77
2023-05-19T04:13:47.533Z,12.80
2023-05-19T04:16:14.722Z,11.68
2023-05-19T04:18:42.453Z,11.30
2023-05-19T04:21:09.726Z,14.10
2023-05-19T04:23:37.176Z,12.35
2023-05-19T04:26:06.924Z,12.57
2023-05-19T04:28:36.763Z,14.15
2023-05-19T04:31:04.123Z,15.75
2023-05-19T04:33:31.420Z,13.20
2023-05-19T04:35:58.778Z,12.90
2023-05-19T04:38:26.149Z,12.32
2023-05-19T04:40:53.511Z,13.00
2023-05-19T04:43:22.352Z,18.88
2023-05-19T04:45:51.537Z,15.80
2023-05-19T04:48:19.185Z,11.52
2023-05-19T04:50:48.883Z,10.18
2023-05-19T04:53:15.975Z,15.10
2023-05-19T04:55:43.285Z,11.15
2023-05-19T04:58:10.320Z,10.98
2023-05-19T05:00:40.029Z,13.93
2023-05-19T05:03:08.408Z,12.35
2023-05-19T05:05:35.869Z,13.90
2023-05-19T05:08:03.346Z,14.55
2023-05-19T05:10:30.400Z,12.57
2023-05-19T05:12:58.085Z,16.33
2023-05-19T05:15:28.665Z,15.85
2023-05-19T05:17:56.848Z,12.55
2023-05-19T05:20:24.344Z,12.02
2023-05-19T05:22:51.540Z,10.70
2023-05-19T05:25:19.132Z,13.00
2023-05-19T05:27:46.116Z,14.35
2023-05-19T05:30:13.252Z,14.73
2023-05-19T05:32:40.362Z,15.60
2023-05-19T05:35:08.151Z,8.70
2023-05-19T05:37:35.422Z,8.82
2023-05-19T05:40:03.816Z,13.60
2023-05-19T05:42:31.159Z,8.38
2023-05-19T05:44:58.042Z,11.85
2023-05-19T05:47:25.527Z,11.57
2023-05-19T05:49:53.657Z,12.60
2023-05-19T05:52:22.789Z,8.65
2023-05-19T05:54:50.253Z,9.18
2023-05-19T05:57:17.635Z,10.30
2023-05-19T05:59:47.162Z,10.18
2023-05-19T06:02:14.575Z,8.45
2023-05-19T06:04:41.904Z,6.78
2023-05-19T06:07:09.359Z,9.35
2023-05-19T06:09:36.710Z,14.38
2023-05-19T06:12:04.112Z,12.38
2023-05-19T06:14:31.063Z,9.77
2023-05-19T06:16:58.369Z,8.07
2023-05-19T06:19:25.533Z,8.70
2023-05-19T06:21:53.056Z,7.22
2023-05-19T06:24:20.355Z,9.73
2023-05-19T06:26:47.252Z,10.45
2023-05-19T06:29:14.475Z,11.32
2023-05-19T06:31:42.193Z,8.70
2023-05-19T06:34:12.422Z,7.47
2023-05-19T06:36:41.636Z,9.98
2023-05-19T06:39:08.564Z,7.82
2023-05-19T06:41:35.908Z,9.98
2023-05-19T06:44:04.372Z,6.70
2023-05-19T06:46:31.660Z,7.38
2023-05-19T06:48:58.956Z,9.52
2023-05-19T06:51:26.366Z,6.20
2023-05-19T06:53:53.229Z,12.52
2023-05-19T06:56:20.149Z,6.63
2023-05-19T06:58:47.479Z,7.32
2023-05-19T07:01:14.805Z,5.32
2023-05-19T07:03:42.174Z,6.68
2023-05-19T07:06:09.359Z,5.82
2023-05-19T07:08:37.281Z,9.10
2023-05-19T07:11:04.413Z,10.98
2023-05-19T07:13:33.016Z,8.15
2023-05-19T07:15:59.930Z,9.88
2023-05-19T07:18:27.308Z,8.82
2023-05-19T07:20:54.634Z,9.00
2023-05-19T07:23:21.986Z,9.73
2023-05-19T07:25:49.271Z,11.95
2023-05-19T07:28:17.075Z,5.80
2023-05-19T07:30:44.436Z,8.30
2023-05-19T07:33:11.764Z,9.60
2023-05-19T07:35:39.253Z,6.13
2023-05-19T07:38:07.548Z,9.40
2023-05-19T07:40:34.948Z,6.25
2023-05-19T07:43:01.921Z,9.63
2023-05-19T07:45:29.187Z,5.55
2023-05-19T07:47:56.165Z,9.18
2023-05-19T07:50:23.527Z,7.68
2023-05-19T07:52:50.380Z,6.63
2023-05-19T07:55:18.075Z,6.32
2023-05-19T07:57:45.150Z,6.15
2023-05-19T08:00:12.741Z,8.63
2023-05-19T08:02:40.267Z,7.50
2023-05-19T08:05:09.333Z,6.82
2023-05-19T08:07:36.675Z,11.70
2023-05-19T08:10:04.251Z,9.13
2023-05-19T08:12:31.586Z,7.28
2023-05-19T08:15:00.455Z,8.07
2023-05-19T08:17:28.823Z,6.68
2023-05-19T08:19:56.164Z,11.70
2023-05-19T08:22:23.232Z,8.32
2023-05-19T08:24:51.864Z,8.25
2023-05-19T08:27:18.854Z,7.97
2023-05-19T08:29:46.133Z,8.45
2023-05-19T08:32:13.627Z,13.93
2023-05-19T08:34:41.476Z,10.90
2023-05-19T08:37:08.387Z,9.75
2023-05-19T08:39:36.058Z,8.63
2023-05-19T08:42:03.521Z,10.95
2023-05-19T08:44:31.276Z,13.05
2023-05-19T08:47:03.128Z,9.82
2023-05-19T08:49:34.369Z,9.77
2023-05-19T08:52:19.548Z,11.60
2023-05-19T08:54:54.835Z,19.50
2023-05-19T08:57:24.983Z,8.85
2023-05-19T08:59:54.226Z,10.32
2023-05-19T09:02:22.663Z,14.90
2023-05-19T09:04:50.282Z,10.52
2023-05-19T09:07:18.990Z,7.00
2023-05-19T09:09:46.621Z,6.13
2023-05-19T09:12:14.440Z,7.30
2023-05-19T09:14:41.739Z,8.52
2023-05-19T09:17:09.192Z,8.98
2023-05-19T09:19:36.609Z,10.05
2023-05-19T09:22:03.921Z,8.52
2023-05-19T09:24:31.535Z,10.30
2023-05-19T09:27:00.197Z,11.32
2023-05-19T09:29:27.852Z,7.20
2023-05-19T09:32:00.967Z,8.70
2023-05-19T09:34:28.116Z,9.57
2023-05-19T09:36:55.405Z,8.15
2023-05-19T09:39:26.063Z,17.77
2023-05-19T09:41:54.379Z,10.43
2023-05-19T09:44:22.216Z,9.00
2023-05-19T09:46:53.872Z,11.57
2023-05-19T09:49:25.480Z,114.05
2023-05-19T09:51:57.071Z,12.43
2023-05-19T09:54:24.964Z,16.80
2023-05-19T09:57:03.625Z,13.27
2023-05-19T09:59:33.398Z,43.10
2023-05-19T10:02:02.576Z,13.18
2023-05-19T10:04:31.553Z,13.13
2023-05-19T10:06:59.859Z,17.90
2023-05-19T10:09:29.613Z,15.45
2023-05-19T10:11:57.704Z,13.65
2023-05-19T10:14:28.625Z,22.15
2023-05-19T10:16:57.483Z,12.82
2023-05-19T10:19:28.801Z,12.50
2023-05-19T10:21:56.461Z,11.63
2023-05-19T10:24:23.840Z,13.20
2023-05-19T10:27:14.534Z,13.77
2023-05-19T10:29:50.065Z,13.80
2023-05-19T10:32:24.017Z,9.30
2023-05-19T10:34:51.441Z,15.98
2023-05-19T10:37:40.181Z,11.30
2023-05-19T10:40:12.279Z,17.10
2023-05-19T10:42:50.533Z,19.58
2023-05-19T10:45:24.191Z,13.07
2023-05-19T10:47:51.962Z,12.18
2023-05-19T10:50:19.367Z,8.65
2023-05-19T10:52:57.356Z,12.90
2023-05-19T10:55:47.866Z,12.63
2023-05-19T10:58:15.155Z,14.20
2023-05-19T11:00:42.388Z,16.20
2023-05-19T11:03:17.803Z,14.07
2023-05-19T11:05:51.007Z,13.27
2023-05-19T11:11:16.463Z,18.95
2023-05-19T11:14:10.935Z,21.48
2023-05-19T11:16:38.260Z,16.15
2023-05-19T11:19:06.602Z,12.25
2023-05-19T11:21:49.100Z,13.20
2023-05-19T11:24:33.389Z,13.77
2023-05-19T11:27:01.037Z,17.30
2023-05-19T11:29:28.474Z,16.95
2023-05-19T11:31:56.084Z,12.02
2023-05-19T11:34:26.049Z,18.25
2023-05-19T11:36:53.510Z,14.88
2023-05-19T11:39:20.594Z,13.88
2023-05-19T11:41:48.062Z,29.45
2023-05-19T11:44:15.347Z,16.58
2023-05-19T11:46:42.697Z,14.35
2023-05-19T11:49:09.758Z,15.30
2023-05-19T11:51:38.354Z,15.35
2023-05-19T11:54:05.505Z,13.82
2023-05-19T11:56:40.045Z,15.30
2023-05-19T11:59:07.429Z,14.65
2023-05-19T12:01:34.995Z,16.95
2023-05-19T12:04:02.651Z,19.45
2023-05-19T12:06:30.268Z,15.45
2023-05-19T12:08:57.267Z,19.92
2023-05-19T12:11:24.651Z,13.70
2023-05-19T12:13:54.655Z,15.32
2023-05-19T12:16:22.083Z,19.20
2023-05-19T12:18:49.397Z,19.25
2023-05-19T12:21:17.434Z,21.42
2023-05-19T12:23:45.208Z,20.48
2023-05-19T12:26:12.333Z,16.77
2023-05-19T12:28:39.628Z,41.70
2023-05-19T12:31:06.553Z,19.80
2023-05-19T12:33:35.681Z,16.92
2023-05-19T12:36:03.281Z,21.50
2023-05-19T12:38:30.540Z,17.17
2023-05-19T12:41:00.190Z,15.95
2023-05-19T12:43:27.618Z,16.40
2023-05-19T12:45:55.107Z,18.15
2023-05-19T12:48:23.043Z,17.27
2023-05-19T12:50:55.821Z,14.70
2023-05-19T12:53:22.974Z,14.15
2023-05-19T12:55:52.866Z,17.90
2023-05-19T12:58:20.241Z,16.63
2023-05-19T13:00:49.835Z,18.52
2023-05-19T13:03:22.102Z,23.40
2023-05-19T13:05:51.321Z,17.00
2023-05-19T13:08:20.705Z,21.80
2023-05-19T13:10:49.279Z,19.02
2023-05-19T13:13:16.854Z,15.55
2023-05-19T13:15:45.656Z,16.35
2023-05-19T13:18:13.809Z,14.82
2023-05-19T13:20:42.050Z,18.50
2023-05-19T13:23:11.048Z,22.90
2023-05-19T13:25:38.152Z,15.60
2023-05-19T13:28:05.969Z,17.05
2023-05-19T13:30:34.638Z,27.48
2023-05-19T13:33:02.843Z,24.23
2023-05-19T13:35:36.765Z,18.23
2023-05-19T13:38:10.052Z,12.88
2023-05-19T13:40:37.883Z,19.90
2023-05-19T13:43:06.120Z,13.77
2023-05-19T13:45:33.182Z,20.55
2023-05-19T13:48:00.557Z,21.42
2023-05-19T13:50:27.568Z,25.42
2023-05-19T13:52:54.458Z,18.73
2023-05-19T13:55:22.584Z,18.02
2023-05-19T13:57:49.836Z,19.35
2023-05-19T14:00:18.330Z,19.85
2023-05-19T14:02:45.615Z,19.52
2023-05-19T14:05:13.154Z,17.30
2023-05-19T14:07:40.581Z,24.92
2023-05-19T14:10:08.592Z,15.75
2023-05-19T14:12:49.525Z,18.63
2023-05-19T14:15:23.854Z,20.67
2023-05-19T14:17:53.171Z,17.38
2023-05-19T14:20:20.541Z,19.30
2023-05-19T14:22:48.048Z,23.42
2023-05-19T14:25:14.977Z,15.30
2023-05-19T14:27:42.296Z,31.48
2023-05-19T14:30:10.755Z,25.15
2023-05-19T14:32:38.107Z,22.20
2023-05-19T14:35:05.506Z,18.90
2023-05-19T14:37:32.831Z,22.58
2023-05-19T14:40:00.360Z,23.17
2023-05-19T14:42:27.624Z,50.25
2023-05-19T14:44:54.948Z,45.25
2023-05-19T14:47:21.801Z,24.13
2023-05-19T14:49:49.203Z,30.20
2023-05-19T14:52:17.879Z,17.38
2023-05-19T14:54:45.185Z,14.27
2023-05-19T14:57:12.431Z,15.98
2023-05-19T14:59:40.016Z,21.77
2023-05-19T15:02:07.194Z,18.17
2023-05-19T15:04:34.484Z,22.08
2023-05-19T15:09:31.888Z,17.52
2023-05-19T15:12:01.356Z,20.63
2023-05-19T15:14:30.734Z,21.40
2023-05-19T15:16:58.785Z,24.20
2023-05-19T15:19:26.442Z,31.30
2023-05-19T15:21:53.585Z,18.90
2023-05-19T15:24:20.887Z,23.40
2023-05-19T15:26:48.219Z,19.70
2023-05-19T15:29:15.951Z,19.65
2023-05-19T15:31:43.390Z,29.55
2023-05-19T15:34:10.760Z,20.27
2023-05-19T15:36:38.037Z,16.25
2023-05-19T15:39:06.516Z,24.13
2023-05-19T15:41:33.389Z,25.17
2023-05-19T15:44:00.792Z,20.30
2023-05-19T15:46:28.228Z,23.13
2023-05-19T15:48:55.629Z,40.72
2023-05-19T15:51:22.816Z,43.00
2023-05-19T15:53:49.898Z,19.17
2023-05-19T15:56:17.383Z,55.25
2023-05-19T15:58:44.355Z,21.85
2023-05-19T16:01:11.676Z,24.55
2023-05-19T16:03:39.044Z,47.58
2023-05-19T16:06:06.419Z,41.92
2023-05-19T16:08:33.267Z,26.35
2023-05-19T16:11:00.325Z,24.70
2023-05-19T16:13:27.744Z,29.15
2023-05-19T16:15:54.637Z,25.10
2023-05-19T16:18:21.574Z,24.75
2023-05-19T16:20:48.954Z,50.25
2023-05-19T16:23:16.257Z,40.30
2023-05-19T16:25:43.149Z,33.60
2023-05-19T16:28:10.715Z,49.35
2023-05-19T16:30:38.111Z,43.78
2023-05-19T16:33:05.504Z,51.25
2023-05-19T16:35:33.461Z,51.15
2023-05-19T16:38:00.795Z,28.27
2023-05-19T16:40:30.761Z,27.42
2023-05-19T16:42:58.338Z,26.13
2023-05-19T16:45:26.527Z,24.35
2023-05-19T16:47:53.972Z,26.50
2023-05-19T16:50:21.371Z,28.90
2023-05-19T16:52:48.619Z,28.27
2023-05-19T16:55:19.712Z,28.40
2023-05-19T16:57:47.378Z,22.25
2023-05-19T17:00:15.016Z,29.45
2023-05-19T17:02:42.028Z,24.70
2023-05-19T17:05:10.016Z,25.85
2023-05-19T17:07:37.038Z,25.73
2023-05-19T17:10:04.398Z,20.05
2023-05-19T17:12:31.718Z,20.40
2023-05-19T17:14:58.987Z,21.83
2023-05-19T17:17:25.985Z,25.17
2023-05-19T17:19:53.409Z,26.85
2023-05-19T17:22:20.803Z,26.10
2023-05-19T17:24:47.681Z,25.45
2023-05-19T17:27:15.168Z,42.60
2023-05-19T17:29:42.514Z,25.13
2023-05-19T17:32:09.820Z,20.02
2023-05-19T17:34:36.806Z,21.75
2023-05-19T17:37:04.178Z,28.85
2023-05-19T17:39:31.530Z,27.65
2023-05-19T17:41:58.946Z,27.10
2023-05-19T17:44:25.831Z,21.58
2023-05-19T17:46:53.257Z,20.33
2023-05-19T17:49:21.659Z,25.30
2023-05-19T17:51:49.011Z,25.40
2023-05-19T17:54:16.368Z,27.83
2023-05-19T17:56:45.659Z,23.58
2023-05-19T17:59:13.027Z,24.35
2023-05-19T18:01:40.972Z,24.38
2023-05-19T18:04:08.385Z,24.38
2023-05-19T18:06:38.675Z,23.88
2023-05-19T18:09:09.665Z,44.03
2023-05-19T18:11:37.516Z,39.42
2023-05-19T18:14:04.432Z,70.30
2023-05-19T18:16:31.613Z,72.47
2023-05-19T18:18:58.907Z,35.45
2023-05-19T18:21:26.859Z,47.28
2023-05-19T18:23:53.785Z,56.13
2023-05-19T18:26:21.551Z,72.82
2023-05-19T18:28:48.458Z,32.00
2023-05-19T18:31:20.012Z,40.45
2023-05-19T18:33:47.347Z,24.17
2023-05-19T18:36:16.504Z,44.13
2023-05-19T18:38:43.564Z,54.58
2023-05-19T18:41:10.488Z,29.48
2023-05-19T18:43:37.433Z,39.03
2023-05-19T18:46:04.515Z,48.58
2023-05-19T18:48:33.243Z,27.83
2023-05-19T18:51:00.316Z,46.15
2023-05-19T18:53:27.288Z,44.92
2023-05-19T18:55:54.214Z,31.92
2023-05-19T18:58:21.635Z,34.97
2023-05-19T19:00:49.268Z,47.85
2023-05-19T19:03:16.328Z,31.15
2023-05-19T19:05:44.054Z,34.95
2023-05-19T19:08:11.078Z,30.80
2023-05-19T19:10:40.681Z,26.83
2023-05-19T19:13:07.702Z,24.13
2023-05-19T19:15:34.690Z,31.13
2023-05-19T19:18:02.344Z,28.08
2023-05-19T19:20:29.296Z,31.20
2023-05-19T19:22:56.923Z,30.90
2023-05-19T19:25:23.915Z,24.73
2023-05-19T19:27:51.264Z,26.15
2023-05-19T19:30:18.609Z,25.60
2023-05-19T19:32:45.906Z,34.95
2023-05-19T19:35:12.934Z,37.55
2023-05-19T19:37:39.901Z,30.08
2023-05-19T19:40:07.496Z,27.23
2023-05-19T19:42:34.646Z,25.75
2023-05-19T19:45:01.717Z,24.83
2023-05-19T19:47:28.654Z,46.70
2023-05-19T19:49:56.204Z,34.15
2023-05-19T19:52:23.148Z,39.53
2023-05-19T19:54:50.098Z,50.90
2023-05-19T19:57:17.398Z,34.92
2023-05-19T19:59:44.385Z,31.85
2023-05-19T20:02:11.590Z,36.63
2023-05-19T20:04:38.662Z,38.45
2023-05-19T20:07:05.947Z,40.10
2023-05-19T20:09:32.803Z,46.05
2023-05-19T20:11:59.796Z,33.65
2023-05-19T20:14:27.080Z,40.42
2023-05-19T20:16:53.938Z,36.30
2023-05-19T20:19:21.210Z,36.75
2023-05-19T20:21:48.297Z,33.55
2023-05-19T20:24:15.187Z,35.45
2023-05-19T20:26:42.061Z,33.88
2023-05-19T20:29:08.971Z,37.95
2023-05-19T20:31:36.168Z,37.10
2023-05-19T20:34:03.045Z,32.05
2023-05-19T20:36:29.987Z,51.63
2023-05-19T20:38:57.219Z,37.30
2023-05-19T20:41:24.120Z,29.55
2023-05-19T20:43:51.052Z,33.05
2023-05-19T20:46:18.001Z,31.42
2023-05-19T20:48:44.986Z,28.42
2023-05-19T20:51:11.905Z,30.35
2023-05-19T20:53:38.982Z,32.30
2023-05-19T20:56:07.349Z,29.00
2023-05-19T20:58:34.259Z,37.15
2023-05-19T21:01:01.346Z,31.25
2023-05-19T21:03:28.684Z,36.53
2023-05-19T21:05:56.487Z,32.30
2023-05-19T21:08:23.905Z,39.67
2023-05-19T21:10:51.217Z,33.55
2023-05-19T21:13:18.763Z,27.40
2023-05-19T21:15:45.697Z,33.40
2023-05-19T21:18:12.916Z,36.58
2023-05-19T21:20:40.197Z,32.78
2023-05-19T21:23:07.148Z,36.10
2023-05-19T21:25:34.053Z,30.23
2023-05-19T21:28:01.143Z,33.83
2023-05-19T21:30:28.061Z,31.55
2023-05-19T21:32:55.156Z,34.28
2023-05-19T21:35:22.222Z,37.25
2023-05-19T21:37:49.124Z,35.67
2023-05-19T21:40:16.190Z,38.80
2023-05-19T21:42:43.111Z,31.63
2023-05-19T21:45:10.544Z,35.35
2023-05-19T21:47:37.410Z,34.28
2023-05-19T21:50:04.516Z,39.10
2023-05-19T21:52:31.463Z,33.95
2023-05-19T21:54:58.460Z,41.20
2023-05-19T21:57:25.492Z,45.55
2023-05-19T21:59:52.410Z,33.15
2023-05-19T22:02:19.298Z,29.48
2023-05-19T22:04:46.398Z,30.73
2023-05-19T22:07:13.256Z,34.83
2023-05-19T22:09:40.140Z,36.03
2023-05-19T22:12:07.615Z,33.33
2023-05-19T22:14:34.551Z,37.25
2023-05-19T22:17:01.451Z,52.55
2023-05-19T22:19:28.953Z,39.85
2023-05-19T22:22:05.997Z,28.90
2023-05-19T22:24:40.327Z,31.48
2023-05-19T22:27:08.448Z,39.40
2023-05-19T22:29:38.381Z,30.60
2023-05-19T22:32:07.736Z,28.80
2023-05-19T22:34:34.712Z,30.17
2023-05-19T22:37:01.989Z,61.50
2023-05-19T22:39:28.891Z,38.53
2023-05-19T22:41:55.809Z,33.28
2023-05-19T22:44:22.737Z,37.90
2023-05-19T22:46:49.615Z,35.38
2023-05-19T22:49:16.510Z,37.85
2023-05-19T22:51:43.502Z,43.05
2023-05-19T22:54:10.872Z,35.47
2023-05-19T22:56:37.799Z,38.63
2023-05-19T22:59:04.744Z,34.20
2023-05-19T23:01:31.695Z,34.30
2023-05-19T23:03:58.650Z,40.42
2023-05-19T23:06:26.090Z,35.85
2023-05-19T23:09:02.748Z,40.90
2023-05-19T23:11:29.821Z,35.83
2023-05-19T23:13:56.883Z,34.95
2023-05-19T23:16:23.825Z,34.92
2023-05-19T23:18:50.760Z,39.45
2023-05-19T23:21:17.646Z,37.55
2023-05-19T23:23:44.679Z,38.10
2023-05-19T23:26:13.637Z,40.47
2023-05-19T23:28:42.619Z,36.55
2023-05-19T23:31:09.955Z,38.83
2023-05-19T23:33:37.011Z,41.00
2023-05-19T23:36:08.771Z,36.35
2023-05-19T23:38:38.322Z,44.22
2023-05-19T23:41:05.463Z,44.95
2023-05-19T23:43:32.563Z,40.85
2023-05-19T23:46:00.279Z,46.00
2023-05-19T23:48:28.856Z,44.40
2023-05-19T23:50:55.802Z,37.75
2023-05-19T23:53:22.791Z,41.70
2023-05-19T23:55:49.673Z,41.35
2023-05-19T23:58:16.584Z,43.28
